createdAt,value
2022-08-25T00:00:44.915Z,2.17
2022-08-25T00:01:54.519Z,1.80
2022-08-25T00:02:58.116Z,2.22
2022-08-25T00:04:04.120Z,2.10
2022-08-25T00:05:06.939Z,2.20
2022-08-25T00:06:11.097Z,1.52
2022-08-25T00:07:13.627Z,2.10
2022-08-25T00:08:21.347Z,2.25
2022-08-25T00:09:27.644Z,2.45
2022-08-25T00:10:30.631Z,2.40
2022-08-25T00:11:35.101Z,2.40
2022-08-25T00:12:37.725Z,2.25
2022-08-25T00:13:43.901Z,2.25
2022-08-25T00:14:46.655Z,2.05
2022-08-25T00:15:49.484Z,2.25
2022-08-25T00:16:52.440Z,2.08
2022-08-25T00:18:00.157Z,3.75
2022-08-25T00:19:08.231Z,3.00
2022-08-25T00:20:13.039Z,1.90
2022-08-25T00:21:16.149Z,2.80
2022-08-25T00:22:18.907Z,2.45
2022-08-25T00:23:21.912Z,2.83
2022-08-25T00:24:25.673Z,2.40
2022-08-25T00:25:28.463Z,2.80
2022-08-25T00:26:32.153Z,2.50
2022-08-25T00:27:34.958Z,2.30
2022-08-25T00:28:38.236Z,2.20
2022-08-25T00:29:41.488Z,2.50
2022-08-25T00:30:44.558Z,2.10
2022-08-25T00:31:47.768Z,2.00
2022-08-25T00:32:57.185Z,2.22
2022-08-25T00:34:00.583Z,2.65
2022-08-25T00:35:04.359Z,2.90
2022-08-25T00:36:07.154Z,2.00
2022-08-25T00:37:11.156Z,2.47
2022-08-25T00:38:14.189Z,3.03
2022-08-25T00:39:16.795Z,2.13
2022-08-25T00:40:20.340Z,2.28
2022-08-25T00:41:24.724Z,2.97
2022-08-25T00:42:27.619Z,2.20
2022-08-25T00:43:35.423Z,2.58
2022-08-25T00:44:38.879Z,3.20
2022-08-25T00:45:41.502Z,2.78
2022-08-25T00:46:47.431Z,2.22
2022-08-25T00:47:50.220Z,2.45
2022-08-25T00:49:24.538Z,2.47
2022-08-25T00:50:29.863Z,2.20
2022-08-25T00:51:44.660Z,2.67
2022-08-25T00:52:51.344Z,1.92
2022-08-25T00:53:54.063Z,2.33
2022-08-25T00:55:08.051Z,2.55
2022-08-25T00:56:11.803Z,2.10
2022-08-25T00:57:17.560Z,2.15
2022-08-25T00:58:25.746Z,2.47
2022-08-25T00:59:29.237Z,2.47
2022-08-25T01:00:34.790Z,2.72
2022-08-25T01:01:37.747Z,3.45
2022-08-25T01:02:40.693Z,2.08
2022-08-25T01:03:43.275Z,2.45
2022-08-25T01:04:49.166Z,2.92
2022-08-25T01:05:52.793Z,2.55
2022-08-25T01:06:57.202Z,2.60
2022-08-25T01:08:06.683Z,3.78
2022-08-25T01:09:09.659Z,3.45
2022-08-25T01:10:14.055Z,2.58
2022-08-25T01:11:18.247Z,2.53
2022-08-25T01:12:22.477Z,2.47
2022-08-25T01:13:34.564Z,2.92
2022-08-25T01:14:38.492Z,2.50
2022-08-25T01:15:42.066Z,2.28
2022-08-25T01:16:44.839Z,2.40
2022-08-25T01:17:51.192Z,2.70
2022-08-25T01:18:57.030Z,2.63
2022-08-25T01:19:59.995Z,2.30
2022-08-25T01:21:02.786Z,3.08
2022-08-25T01:22:05.856Z,2.78
2022-08-25T01:23:08.520Z,2.35
2022-08-25T01:24:29.626Z,3.10
2022-08-25T01:25:57.441Z,2.38
2022-08-25T01:27:01.301Z,3.15
2022-08-25T01:28:05.270Z,2.28
2022-08-25T01:29:21.574Z,2.30
2022-08-25T01:30:24.875Z,2.85
2022-08-25T01:31:29.051Z,2.90
2022-08-25T01:32:34.951Z,3.05
2022-08-25T01:33:37.577Z,2.83
2022-08-25T01:34:42.780Z,2.80
2022-08-25T01:35:46.504Z,2.70
2022-08-25T01:36:49.391Z,1.77
2022-08-25T01:37:52.011Z,2.35
2022-08-25T01:38:55.060Z,2.65
2022-08-25T01:39:57.745Z,2.65
2022-08-25T01:41:00.754Z,2.63
2022-08-25T01:42:09.633Z,3.17
2022-08-25T01:43:15.227Z,2.83
2022-08-25T01:44:19.282Z,2.78
2022-08-25T01:45:22.513Z,2.47
2022-08-25T01:46:25.264Z,2.53
2022-08-25T01:47:28.205Z,2.97
2022-08-25T01:48:32.979Z,2.67
2022-08-25T01:49:36.002Z,3.28
2022-08-25T01:50:39.454Z,2.95
2022-08-25T01:51:49.198Z,2.67
2022-08-25T01:52:56.956Z,3.63
2022-08-25T01:53:59.681Z,2.85
2022-08-25T01:55:03.546Z,2.38
2022-08-25T01:56:11.631Z,2.97
2022-08-25T01:57:15.561Z,2.60
2022-08-25T01:58:25.519Z,3.00
2022-08-25T01:59:28.284Z,2.78
2022-08-25T02:00:31.536Z,3.78
2022-08-25T02:01:34.638Z,2.63
2022-08-25T02:02:37.356Z,3.15
2022-08-25T02:03:48.370Z,2.50
2022-08-25T02:04:51.204Z,2.92
2022-08-25T02:05:54.898Z,3.17
2022-08-25T02:06:58.260Z,2.70
2022-08-25T02:08:02.007Z,2.97
2022-08-25T02:09:14.588Z,3.13
2022-08-25T02:10:17.646Z,3.97
2022-08-25T02:11:20.469Z,2.97
2022-08-25T02:12:23.083Z,3.22
2022-08-25T02:13:26.926Z,2.80
2022-08-25T02:14:35.741Z,2.65
2022-08-25T02:15:44.519Z,2.75
2022-08-25T02:16:49.771Z,2.95
2022-08-25T02:17:52.873Z,2.90
2022-08-25T02:18:56.102Z,3.03
2022-08-25T02:19:58.890Z,2.70
2022-08-25T02:21:01.555Z,3.35
2022-08-25T02:22:04.464Z,3.40
2022-08-25T02:23:07.663Z,3.42
2022-08-25T02:24:11.618Z,2.80
2022-08-25T02:25:14.218Z,3.28
2022-08-25T02:26:19.099Z,2.60
2022-08-25T02:27:21.693Z,2.50
2022-08-25T02:28:25.248Z,3.25
2022-08-25T02:29:28.151Z,2.55
2022-08-25T02:30:31.435Z,3.13
2022-08-25T02:31:34.994Z,3.05
2022-08-25T02:32:37.676Z,2.55
2022-08-25T02:33:40.276Z,3.60
2022-08-25T02:34:43.017Z,2.78
2022-08-25T02:35:45.648Z,3.05
2022-08-25T02:36:48.301Z,3.65
2022-08-25T02:37:52.142Z,3.08
2022-08-25T02:38:58.110Z,3.08
2022-08-25T02:40:00.981Z,2.95
2022-08-25T02:41:12.497Z,3.25
2022-08-25T02:42:15.110Z,3.05
2022-08-25T02:43:17.726Z,3.50
2022-08-25T02:44:20.682Z,3.22
2022-08-25T02:45:23.788Z,3.78
2022-08-25T02:46:27.371Z,3.20
2022-08-25T02:47:31.974Z,3.53
2022-08-25T02:48:34.792Z,3.25
2022-08-25T02:49:38.208Z,2.88
2022-08-25T02:50:41.583Z,3.30
2022-08-25T02:51:44.247Z,3.45
2022-08-25T02:52:50.614Z,3.03
2022-08-25T02:53:53.426Z,2.92
2022-08-25T02:54:56.043Z,3.03
2022-08-25T02:55:58.834Z,3.63
2022-08-25T02:57:01.716Z,3.47
2022-08-25T02:58:04.498Z,3.53
2022-08-25T02:59:07.301Z,3.45
2022-08-25T03:00:15.109Z,2.83
2022-08-25T03:01:17.859Z,3.13
2022-08-25T03:02:20.546Z,3.03
2022-08-25T03:03:23.419Z,3.90
2022-08-25T03:04:26.094Z,2.90
2022-08-25T03:05:28.761Z,3.03
2022-08-25T03:06:31.541Z,3.25
2022-08-25T03:07:35.693Z,3.15
2022-08-25T03:08:38.795Z,2.97
2022-08-25T03:09:41.489Z,4.03
2022-08-25T03:10:44.420Z,3.95
2022-08-25T03:11:47.456Z,3.85
2022-08-25T03:12:50.157Z,3.97
2022-08-25T03:13:54.131Z,3.40
2022-08-25T03:14:56.832Z,3.33
2022-08-25T03:16:00.467Z,3.70
2022-08-25T03:17:03.896Z,3.72
2022-08-25T03:18:11.906Z,4.07
2022-08-25T03:19:16.912Z,3.85
2022-08-25T03:20:19.598Z,4.25
2022-08-25T03:21:22.619Z,4.22
2022-08-25T03:22:25.271Z,3.90
2022-08-25T03:23:29.770Z,3.40
2022-08-25T03:24:32.456Z,3.60
2022-08-25T03:25:53.445Z,3.72
2022-08-25T03:26:57.803Z,4.63
2022-08-25T03:28:01.218Z,3.15
2022-08-25T03:29:07.643Z,4.00
2022-08-25T03:30:11.507Z,3.50
2022-08-25T03:31:14.310Z,3.58
2022-08-25T03:32:16.832Z,3.63
2022-08-25T03:33:20.000Z,3.60
2022-08-25T03:34:23.009Z,3.88
2022-08-25T03:35:25.805Z,3.80
2022-08-25T03:36:28.701Z,3.78
2022-08-25T03:37:31.505Z,2.83
2022-08-25T03:38:34.278Z,3.45
2022-08-25T03:39:37.145Z,4.50
2022-08-25T03:40:39.819Z,3.47
2022-08-25T03:41:42.510Z,2.92
2022-08-25T03:42:46.138Z,3.40
2022-08-25T03:43:49.514Z,3.60
2022-08-25T03:44:52.315Z,3.83
2022-08-25T03:45:54.926Z,3.38
2022-08-25T03:46:57.566Z,3.70
2022-08-25T03:48:00.286Z,4.05
2022-08-25T03:49:06.277Z,3.38
2022-08-25T03:50:10.604Z,3.97
2022-08-25T03:51:14.032Z,3.45
2022-08-25T03:52:18.300Z,3.70
2022-08-25T03:53:21.133Z,3.70
2022-08-25T03:54:25.529Z,4.50
2022-08-25T03:55:28.432Z,3.55
2022-08-25T03:56:32.194Z,3.33
2022-08-25T03:57:35.477Z,3.60
2022-08-25T03:58:38.054Z,3.50
2022-08-25T03:59:40.605Z,3.40
2022-08-25T04:00:43.166Z,4.28
2022-08-25T04:01:50.226Z,3.55
2022-08-25T04:02:55.300Z,4.35
2022-08-25T04:03:57.955Z,3.67
2022-08-25T04:05:01.103Z,4.22
2022-08-25T04:06:05.501Z,3.20
2022-08-25T04:07:07.985Z,3.80
2022-08-25T04:08:11.075Z,3.28
2022-08-25T04:09:13.851Z,4.13
2022-08-25T04:10:16.391Z,4.10
2022-08-25T04:11:21.588Z,4.32
2022-08-25T04:12:24.380Z,3.60
2022-08-25T04:13:27.098Z,3.85
2022-08-25T04:14:29.716Z,3.40
2022-08-25T04:15:32.379Z,3.83
2022-08-25T04:16:35.725Z,3.67
2022-08-25T04:17:40.046Z,3.60
2022-08-25T04:18:43.724Z,4.53
2022-08-25T04:19:46.355Z,3.78
2022-08-25T04:20:49.112Z,4.95
2022-08-25T04:21:56.742Z,3.67
2022-08-25T04:23:01.368Z,3.63
2022-08-25T04:24:05.034Z,3.55
2022-08-25T04:25:08.079Z,3.50
2022-08-25T04:26:14.881Z,4.18
2022-08-25T04:27:17.566Z,3.58
2022-08-25T04:28:20.250Z,3.80
2022-08-25T04:29:24.336Z,4.10
2022-08-25T04:30:27.054Z,3.67
2022-08-25T04:31:30.799Z,3.65
2022-08-25T04:32:35.295Z,3.55
2022-08-25T04:33:38.629Z,4.63
2022-08-25T04:34:42.000Z,3.70
2022-08-25T04:35:49.198Z,3.75
2022-08-25T04:36:52.674Z,3.55
2022-08-25T04:37:55.423Z,4.15
2022-08-25T04:38:58.290Z,4.15
2022-08-25T04:40:00.915Z,4.22
2022-08-25T04:41:06.088Z,3.38
2022-08-25T04:42:11.588Z,4.00
2022-08-25T04:43:14.194Z,3.60
2022-08-25T04:44:17.306Z,4.00
2022-08-25T04:45:21.792Z,3.72
2022-08-25T04:46:28.321Z,3.58
2022-08-25T04:47:31.361Z,3.70
2022-08-25T04:48:35.166Z,3.42
2022-08-25T04:49:37.785Z,4.03
2022-08-25T04:50:40.696Z,3.42
2022-08-25T04:51:43.550Z,3.92
2022-08-25T04:52:46.588Z,3.95
2022-08-25T04:53:49.969Z,3.55
2022-08-25T04:54:52.760Z,4.32
2022-08-25T04:55:55.383Z,4.07
2022-08-25T04:56:58.962Z,3.85
2022-08-25T04:58:01.621Z,3.35
2022-08-25T04:59:07.162Z,5.25
2022-08-25T05:00:10.481Z,4.30
2022-08-25T05:01:24.272Z,3.95
2022-08-25T05:02:27.084Z,3.80
2022-08-25T05:03:31.233Z,3.92
2022-08-25T05:04:35.754Z,3.80
2022-08-25T05:05:39.379Z,4.38
2022-08-25T05:06:43.607Z,3.75
2022-08-25T05:07:47.728Z,4.05
2022-08-25T05:08:51.399Z,3.42
2022-08-25T05:09:56.323Z,3.88
2022-08-25T05:10:59.073Z,4.18
2022-08-25T05:12:02.886Z,3.80
2022-08-25T05:13:05.869Z,4.28
2022-08-25T05:14:12.186Z,3.53
2022-08-25T05:15:33.101Z,3.40
2022-08-25T05:16:37.302Z,3.95
2022-08-25T05:17:40.114Z,3.50
2022-08-25T05:18:43.260Z,3.92
2022-08-25T05:19:45.832Z,3.67
2022-08-25T05:20:48.852Z,3.50
2022-08-25T05:21:52.136Z,3.42
2022-08-25T05:22:54.859Z,3.95
2022-08-25T05:23:58.768Z,3.88
2022-08-25T05:25:01.298Z,3.83
2022-08-25T05:26:25.230Z,3.33
2022-08-25T05:27:27.824Z,3.80
2022-08-25T05:28:30.933Z,3.83
2022-08-25T05:29:33.694Z,3.53
2022-08-25T05:30:41.142Z,4.30
2022-08-25T05:31:50.128Z,3.33
2022-08-25T05:32:53.694Z,4.80
2022-08-25T05:33:57.036Z,3.92
2022-08-25T05:34:59.827Z,3.40
2022-08-25T05:36:03.275Z,3.67
2022-08-25T05:37:08.290Z,3.60
2022-08-25T05:38:15.304Z,3.40
2022-08-25T05:39:18.597Z,3.10
2022-08-25T05:40:21.799Z,3.90
2022-08-25T05:41:28.626Z,3.17
2022-08-25T05:42:31.761Z,3.67
2022-08-25T05:43:35.093Z,4.05
2022-08-25T05:44:38.295Z,4.28
2022-08-25T05:45:41.768Z,3.08
2022-08-25T05:46:44.843Z,3.60
2022-08-25T05:47:47.630Z,3.72
2022-08-25T05:48:50.688Z,4.40
2022-08-25T05:49:53.462Z,4.20
2022-08-25T05:51:00.948Z,3.83
2022-08-25T05:52:04.078Z,4.10
2022-08-25T05:53:07.674Z,3.60
2022-08-25T05:54:10.240Z,4.25
2022-08-25T05:55:13.071Z,4.00
2022-08-25T05:56:15.760Z,4.05
2022-08-25T05:57:18.397Z,3.95
2022-08-25T05:58:22.136Z,3.35
2022-08-25T05:59:25.157Z,4.70
2022-08-25T06:00:28.541Z,4.07
2022-08-25T06:01:49.785Z,4.25
2022-08-25T06:02:52.594Z,4.18
2022-08-25T06:03:55.327Z,3.97
2022-08-25T06:04:59.095Z,4.03
2022-08-25T06:06:08.155Z,3.92
2022-08-25T06:07:10.819Z,3.85
2022-08-25T06:08:13.948Z,3.58
2022-08-25T06:09:16.553Z,4.05
2022-08-25T06:10:20.265Z,3.85
2022-08-25T06:11:22.827Z,4.38
2022-08-25T06:12:25.456Z,4.30
2022-08-25T06:13:28.763Z,4.05
2022-08-25T06:14:32.151Z,3.60
2022-08-25T06:15:35.510Z,3.72
2022-08-25T06:16:39.298Z,4.53
2022-08-25T06:17:43.111Z,4.10
2022-08-25T06:18:45.848Z,4.18
2022-08-25T06:19:48.637Z,4.32
2022-08-25T06:20:51.283Z,4.05
2022-08-25T06:21:55.830Z,3.97
2022-08-25T06:22:59.619Z,4.47
2022-08-25T06:24:02.449Z,3.85
2022-08-25T06:25:05.972Z,4.30
2022-08-25T06:26:20.580Z,4.53
2022-08-25T06:27:24.281Z,3.75
2022-08-25T06:28:26.915Z,4.18
2022-08-25T06:29:29.875Z,3.95
2022-08-25T06:30:32.423Z,3.65
2022-08-25T06:31:35.122Z,4.65
2022-08-25T06:32:39.790Z,4.25
2022-08-25T06:33:43.010Z,5.07
2022-08-25T06:34:45.610Z,4.05
2022-08-25T06:35:48.343Z,4.00
2022-08-25T06:36:51.277Z,4.00
2022-08-25T06:37:54.075Z,4.32
2022-08-25T06:38:56.715Z,3.78
2022-08-25T06:39:59.706Z,4.50
2022-08-25T06:41:06.467Z,3.88
2022-08-25T06:42:09.978Z,3.85
2022-08-25T06:43:12.443Z,3.83
2022-08-25T06:44:15.057Z,3.72
2022-08-25T06:45:18.269Z,4.40
2022-08-25T06:46:28.827Z,4.40
2022-08-25T06:47:39.342Z,3.75
2022-08-25T06:48:42.905Z,4.15
2022-08-25T06:49:46.065Z,4.10
2022-08-25T06:50:48.702Z,4.20
2022-08-25T06:51:51.356Z,4.13
2022-08-25T06:52:54.330Z,4.43
2022-08-25T06:53:57.324Z,3.92
2022-08-25T06:55:00.043Z,3.63
2022-08-25T06:56:06.624Z,4.15
2022-08-25T06:57:09.631Z,3.72
2022-08-25T06:58:12.203Z,4.00
2022-08-25T06:59:15.134Z,5.00
2022-08-25T07:00:17.795Z,4.32
2022-08-25T07:01:25.953Z,4.05
2022-08-25T07:02:28.849Z,4.13
2022-08-25T07:03:32.023Z,3.92
2022-08-25T07:04:35.285Z,4.22
2022-08-25T07:05:44.913Z,4.35
2022-08-25T07:06:48.216Z,4.03
2022-08-25T07:07:52.217Z,3.95
2022-08-25T07:08:55.027Z,3.47
2022-08-25T07:09:57.671Z,4.75
2022-08-25T07:11:06.931Z,4.28
2022-08-25T07:12:18.585Z,3.85
2022-08-25T07:13:21.372Z,3.72
2022-08-25T07:14:23.977Z,4.00
2022-08-25T07:15:26.680Z,4.07
2022-08-25T07:16:32.804Z,4.00
2022-08-25T07:17:35.580Z,3.67
2022-08-25T07:18:38.266Z,4.20
2022-08-25T07:19:41.192Z,4.00
2022-08-25T07:20:43.801Z,3.47
2022-08-25T07:21:47.006Z,4.10
2022-08-25T07:22:49.635Z,3.97
2022-08-25T07:23:52.691Z,4.20
2022-08-25T07:24:55.353Z,4.38
2022-08-25T07:27:41.235Z,3.40
2022-08-25T07:28:47.514Z,3.42
2022-08-25T07:29:50.396Z,3.25
2022-08-25T07:30:53.211Z,4.00
2022-08-25T07:31:56.137Z,3.63
2022-08-25T07:32:59.544Z,4.43
2022-08-25T07:34:22.180Z,3.78
2022-08-25T07:35:26.364Z,3.45
2022-08-25T07:36:39.145Z,3.25
2022-08-25T07:37:56.805Z,4.25
2022-08-25T07:39:05.466Z,3.65
2022-08-25T07:40:09.192Z,3.88
2022-08-25T07:41:11.852Z,3.45
2022-08-25T07:42:14.515Z,4.47
2022-08-25T07:43:18.683Z,3.75
2022-08-25T07:44:22.901Z,3.65
2022-08-25T07:45:32.231Z,5.03
2022-08-25T07:46:35.001Z,4.63
2022-08-25T07:47:38.989Z,4.18
2022-08-25T07:48:42.136Z,3.55
2022-08-25T07:49:47.957Z,4.20
2022-08-25T07:50:50.892Z,4.10
2022-08-25T07:52:04.420Z,4.07
2022-08-25T07:53:09.610Z,4.85
2022-08-25T07:54:13.210Z,4.68
2022-08-25T07:55:17.974Z,3.88
2022-08-25T07:56:20.842Z,3.63
2022-08-25T07:57:26.549Z,4.22
2022-08-25T07:58:29.349Z,3.88
2022-08-25T07:59:39.329Z,3.75
2022-08-25T08:00:42.787Z,3.92
2022-08-25T08:01:45.507Z,3.80
2022-08-25T08:02:48.285Z,3.92
2022-08-25T08:03:52.242Z,3.75
2022-08-25T08:04:54.942Z,4.30
2022-08-25T08:05:58.168Z,3.97
2022-08-25T08:07:00.931Z,3.42
2022-08-25T08:08:03.905Z,5.43
2022-08-25T08:09:06.698Z,3.60
2022-08-25T08:10:42.429Z,4.45
2022-08-25T08:11:45.133Z,3.70
2022-08-25T08:12:54.495Z,3.78
2022-08-25T08:13:58.493Z,3.92
2022-08-25T08:15:01.398Z,4.03
2022-08-25T08:16:13.197Z,3.85
2022-08-25T08:17:16.283Z,4.20
2022-08-25T08:18:19.094Z,3.95
2022-08-25T08:19:23.146Z,4.18
2022-08-25T08:20:26.751Z,4.07
2022-08-25T08:21:34.575Z,4.30
2022-08-25T08:22:38.824Z,4.15
2022-08-25T08:23:41.783Z,4.00
2022-08-25T08:24:54.856Z,3.85
2022-08-25T08:25:58.919Z,3.92
2022-08-25T08:27:02.820Z,4.35
2022-08-25T08:28:07.229Z,3.63
2022-08-25T08:29:10.165Z,4.10
2022-08-25T08:30:13.360Z,4.18
2022-08-25T08:31:19.560Z,4.60
2022-08-25T08:32:23.135Z,4.55
2022-08-25T08:33:40.667Z,4.15
2022-08-25T08:34:43.684Z,3.85
2022-08-25T08:35:47.601Z,3.63
2022-08-25T08:36:50.312Z,5.35
2022-08-25T08:37:53.911Z,3.78
2022-08-25T08:38:56.714Z,3.92
2022-08-25T08:40:03.365Z,3.85
2022-08-25T08:42:09.817Z,4.13
2022-08-25T08:43:17.985Z,4.05
2022-08-25T08:44:44.209Z,4.22
2022-08-25T08:45:51.237Z,3.88
2022-08-25T08:46:59.196Z,4.53
2022-08-25T08:48:25.756Z,3.63
2022-08-25T08:49:41.481Z,4.00
2022-08-25T08:51:14.472Z,4.57
2022-08-25T08:52:22.424Z,3.65
2022-08-25T08:53:47.454Z,4.05
2022-08-25T08:54:56.934Z,2.95
2022-08-25T08:56:02.535Z,3.92
2022-08-25T08:57:20.796Z,4.28
2022-08-25T08:58:26.351Z,3.45
2022-08-25T08:59:34.395Z,3.65
2022-08-25T09:00:42.840Z,3.95
2022-08-25T09:02:01.926Z,4.82
2022-08-25T09:03:11.247Z,3.42
2022-08-25T09:04:39.452Z,3.73
2022-08-25T09:05:49.161Z,3.40
2022-08-25T09:06:52.254Z,3.70
2022-08-25T09:07:57.759Z,3.58
2022-08-25T09:09:06.948Z,3.38
2022-08-25T09:10:10.609Z,3.92
2022-08-25T09:11:21.390Z,3.33
2022-08-25T09:12:38.307Z,4.03
2022-08-25T09:13:53.878Z,3.92
2022-08-25T09:15:15.248Z,3.33
2022-08-25T09:16:54.962Z,3.95
2022-08-25T09:18:21.209Z,3.83
2022-08-25T09:19:32.244Z,4.30
2022-08-25T09:20:46.927Z,3.55
2022-08-25T09:22:33.667Z,3.63
2022-08-25T09:23:52.604Z,3.75
2022-08-25T09:25:08.759Z,2.72
2022-08-25T09:26:28.483Z,2.90
2022-08-25T09:28:51.532Z,3.30
2022-08-25T09:30:05.835Z,3.40
2022-08-25T09:31:29.132Z,3.15
2022-08-25T09:32:36.273Z,3.35
2022-08-25T09:33:42.215Z,3.03
2022-08-25T09:34:45.525Z,3.60
2022-08-25T09:35:49.317Z,3.78
2022-08-25T09:36:53.371Z,3.58
2022-08-25T09:38:07.101Z,3.60
2022-08-25T09:39:10.350Z,3.35
2022-08-25T09:40:13.303Z,2.72
2022-08-25T09:41:35.613Z,3.78
2022-08-25T09:42:47.080Z,3.03
2022-08-25T09:43:54.297Z,3.45
2022-08-25T09:44:57.281Z,3.38
2022-08-25T09:46:02.955Z,3.17
2022-08-25T09:47:08.146Z,3.20
2022-08-25T09:48:40.758Z,3.10
2022-08-25T09:49:46.956Z,2.92
2022-08-25T09:50:51.723Z,3.92
2022-08-25T09:51:54.506Z,3.22
2022-08-25T09:53:18.547Z,3.60
2022-08-25T09:54:25.515Z,3.20
2022-08-25T09:55:36.886Z,3.20
2022-08-25T09:56:58.421Z,3.60
2022-08-25T09:58:01.081Z,3.40
2022-08-25T09:59:18.697Z,3.80
2022-08-25T10:00:33.725Z,3.58
2022-08-25T10:01:51.575Z,3.85
2022-08-25T10:03:18.337Z,3.13
2022-08-25T10:04:34.130Z,3.35
2022-08-25T10:05:59.424Z,3.83
2022-08-25T10:07:05.518Z,4.13
2022-08-25T10:08:39.558Z,3.72
2022-08-25T10:09:45.909Z,3.83
2022-08-25T10:10:55.563Z,3.72
2022-08-25T10:12:01.234Z,3.67
2022-08-25T10:13:22.837Z,3.47
2022-08-25T10:14:34.071Z,3.38
2022-08-25T10:15:38.742Z,4.45
2022-08-25T10:16:41.896Z,2.95
2022-08-25T10:17:50.781Z,3.83
2022-08-25T10:19:23.643Z,3.35
2022-08-25T10:20:33.015Z,3.88
2022-08-25T10:21:39.686Z,3.28
2022-08-25T10:22:43.491Z,3.60
2022-08-25T10:23:52.585Z,3.22
2022-08-25T10:24:55.666Z,3.40
2022-08-25T10:26:04.547Z,3.55
2022-08-25T10:27:14.143Z,4.10
2022-08-25T10:28:29.663Z,3.37
2022-08-25T10:29:55.475Z,3.58
2022-08-25T10:31:03.169Z,3.50
2022-08-25T10:32:18.238Z,4.13
2022-08-25T10:33:37.228Z,3.42
2022-08-25T10:34:51.764Z,3.50
2022-08-25T10:36:13.289Z,3.88
2022-08-25T10:37:37.286Z,4.13
2022-08-25T10:38:46.430Z,3.17
2022-08-25T10:39:55.919Z,4.07
2022-08-25T10:41:01.648Z,3.53
2022-08-25T10:42:19.955Z,3.40
2022-08-25T10:43:49.057Z,3.92
2022-08-25T10:45:22.549Z,3.47
2022-08-25T10:46:37.053Z,3.97
2022-08-25T10:48:00.549Z,4.22
2022-08-25T10:49:10.954Z,3.15
2022-08-25T10:50:24.772Z,3.55
2022-08-25T10:51:37.411Z,4.10
2022-08-25T10:53:04.932Z,4.03
2022-08-25T10:54:23.975Z,3.42
2022-08-25T10:55:48.835Z,3.47
2022-08-25T10:57:11.538Z,3.38
2022-08-25T10:58:43.668Z,3.63
2022-08-25T10:59:55.480Z,3.70
2022-08-25T11:01:20.053Z,3.38
2022-08-25T11:02:57.372Z,3.22
2022-08-25T11:04:04.991Z,3.83
2022-08-25T11:05:24.830Z,4.28
2022-08-25T11:06:39.596Z,3.47
2022-08-25T11:07:46.543Z,3.42
2022-08-25T11:08:59.815Z,3.67
2022-08-25T11:10:25.878Z,3.50
2022-08-25T11:11:38.317Z,3.53
2022-08-25T11:12:59.662Z,3.78
2022-08-25T11:14:13.445Z,3.65
2022-08-25T11:15:21.400Z,3.03
2022-08-25T11:16:27.004Z,3.33
2022-08-25T11:17:54.336Z,3.13
2022-08-25T11:19:19.913Z,3.67
2022-08-25T11:20:28.609Z,3.08
2022-08-25T11:22:14.675Z,3.42
2022-08-25T11:23:24.940Z,2.63
2022-08-25T11:25:52.852Z,2.47
2022-08-25T11:26:57.415Z,3.22
2022-08-25T11:28:43.170Z,2.92
2022-08-25T11:29:56.351Z,2.58
2022-08-25T11:31:01.043Z,3.33
2022-08-25T11:32:04.442Z,3.63
2022-08-25T11:33:07.323Z,3.25
2022-08-25T11:34:15.328Z,2.80
2022-08-25T11:35:39.070Z,3.00
2022-08-25T11:36:44.437Z,2.60
2022-08-25T11:38:13.412Z,3.13
2022-08-25T11:39:35.677Z,3.00
2022-08-25T11:41:02.679Z,3.20
2022-08-25T11:42:35.920Z,3.15
2022-08-25T11:43:40.570Z,2.45
2022-08-25T11:45:07.882Z,2.65
2022-08-25T11:46:44.549Z,2.97
2022-08-25T11:48:12.774Z,2.40
2022-08-25T11:49:24.697Z,2.47
2022-08-25T11:50:35.196Z,2.75
2022-08-25T11:51:38.249Z,3.00
2022-08-25T11:52:47.118Z,2.25
2022-08-25T11:53:50.360Z,2.85
2022-08-25T11:54:56.505Z,2.88
2022-08-25T11:56:30.326Z,3.05
2022-08-25T11:57:33.196Z,2.15
2022-08-25T11:58:51.411Z,2.40
2022-08-25T11:59:57.886Z,2.47
2022-08-25T12:01:02.344Z,2.70
2022-08-25T12:02:05.648Z,2.60
2022-08-25T12:03:34.119Z,2.80
2022-08-25T12:04:44.290Z,2.33
2022-08-25T12:06:12.881Z,2.40
2022-08-25T12:07:16.753Z,2.05
2022-08-25T12:08:57.905Z,2.53
2022-08-25T12:10:06.204Z,2.15
2022-08-25T12:11:11.962Z,2.25
2022-08-25T12:12:32.070Z,2.20
2022-08-25T12:13:49.238Z,2.22
2022-08-25T12:14:53.600Z,2.05
2022-08-25T12:16:00.364Z,2.25
2022-08-25T12:17:24.500Z,2.05
2022-08-25T12:18:27.040Z,2.33
2022-08-25T12:19:35.507Z,2.08
2022-08-25T12:20:53.833Z,1.85
2022-08-25T12:22:16.347Z,1.88
2022-08-25T12:23:44.840Z,2.33
2022-08-25T12:25:03.422Z,1.85
2022-08-25T12:26:13.886Z,2.35
2022-08-25T12:27:39.130Z,1.90
2022-08-25T12:28:59.607Z,1.80
2022-08-25T12:30:43.590Z,2.00
2022-08-25T12:32:04.366Z,1.70
2022-08-25T12:33:10.446Z,2.28
2022-08-25T12:34:26.684Z,1.80
2022-08-25T12:35:51.466Z,1.90
2022-08-25T12:37:06.441Z,2.75
2022-08-25T12:38:16.086Z,2.25
2022-08-25T12:39:24.623Z,1.92
2022-08-25T12:40:27.379Z,1.80
2022-08-25T12:41:32.901Z,2.15
2022-08-25T12:42:44.126Z,2.03
2022-08-25T12:43:49.071Z,1.98
2022-08-25T12:45:15.125Z,1.95
2022-08-25T12:46:25.922Z,1.77
2022-08-25T12:47:33.902Z,1.88
2022-08-25T12:48:42.029Z,2.20
2022-08-25T12:49:45.344Z,2.00
2022-08-25T12:50:50.407Z,2.05
2022-08-25T12:51:57.332Z,1.80
2022-08-25T12:53:18.323Z,2.20
2022-08-25T12:54:36.553Z,2.45
2022-08-25T12:55:45.611Z,2.53
2022-08-25T12:56:58.219Z,2.15
2022-08-25T12:58:01.413Z,1.73
2022-08-25T12:59:22.229Z,2.13
2022-08-25T13:00:46.110Z,2.17
2022-08-25T13:02:11.735Z,1.60
2022-08-25T13:03:27.615Z,1.80
2022-08-25T13:04:45.744Z,1.80
2022-08-25T13:06:00.277Z,1.95
2022-08-25T13:07:29.742Z,1.98
2022-08-25T13:08:37.100Z,1.80
2022-08-25T13:10:19.964Z,2.08
2022-08-25T13:11:35.248Z,2.03
2022-08-25T13:12:46.630Z,2.35
2022-08-25T13:14:12.822Z,2.58
2022-08-25T13:15:35.431Z,2.17
2022-08-25T13:16:39.399Z,2.03
2022-08-25T13:17:42.439Z,2.20
2022-08-25T13:18:51.422Z,2.22
2022-08-25T13:20:13.477Z,1.80
2022-08-25T13:21:20.401Z,2.28
2022-08-25T13:22:23.948Z,2.08
2022-08-25T13:23:29.234Z,2.05
2022-08-25T13:24:40.457Z,2.00
2022-08-25T13:25:49.434Z,2.00
2022-08-25T13:26:57.364Z,1.75
2022-08-25T13:28:03.679Z,1.90
2022-08-25T13:29:09.414Z,2.13
2022-08-25T13:30:32.947Z,1.90
2022-08-25T13:31:38.445Z,1.75
2022-08-25T13:32:45.126Z,2.80
2022-08-25T13:34:03.860Z,1.98
2022-08-25T13:36:35.684Z,2.17
2022-08-25T13:37:38.629Z,1.85
2022-08-25T13:38:45.761Z,2.10
2022-08-25T13:39:56.538Z,2.20
2022-08-25T13:41:09.280Z,1.90
2022-08-25T13:42:15.363Z,1.88
2022-08-25T13:43:18.053Z,2.00
2022-08-25T13:44:32.244Z,2.00
2022-08-25T13:45:44.418Z,2.05
2022-08-25T13:46:47.749Z,2.05
2022-08-25T13:47:55.863Z,2.05
2022-08-25T13:49:07.178Z,1.95
2022-08-25T13:50:38.126Z,2.22
2022-08-25T13:51:54.528Z,2.08
2022-08-25T13:53:31.741Z,1.50
2022-08-25T13:54:40.897Z,1.75
2022-08-25T13:55:53.661Z,1.65
2022-08-25T13:57:24.092Z,1.75
2022-08-25T13:58:44.632Z,1.67
2022-08-25T13:59:53.935Z,2.17
2022-08-25T14:01:23.206Z,2.35
2022-08-25T14:02:44.295Z,1.92
2022-08-25T14:03:47.615Z,2.20
2022-08-25T14:04:52.694Z,1.50
2022-08-25T14:06:26.467Z,2.00
2022-08-25T14:07:33.635Z,1.88
2022-08-25T14:08:45.505Z,1.60
2022-08-25T14:09:54.641Z,1.77
2022-08-25T14:11:14.698Z,1.88
2022-08-25T14:12:38.443Z,1.67
2022-08-25T14:13:44.623Z,2.00
2022-08-25T14:15:09.511Z,1.70
2022-08-25T14:16:20.684Z,2.10
2022-08-25T14:17:39.173Z,2.03
2022-08-25T14:19:14.698Z,1.67
2022-08-25T14:20:25.698Z,1.73
2022-08-25T14:21:30.225Z,1.73
2022-08-25T14:22:32.895Z,2.35
2022-08-25T14:23:38.870Z,2.00
2022-08-25T14:24:42.149Z,1.80
2022-08-25T14:25:45.012Z,2.53
2022-08-25T14:26:54.567Z,2.10
2022-08-25T14:28:16.319Z,1.90
2022-08-25T14:29:19.143Z,2.08
2022-08-25T14:30:28.646Z,1.80
2022-08-25T14:31:35.188Z,2.20
2022-08-25T14:32:37.992Z,1.83
2022-08-25T14:33:44.384Z,2.08
2022-08-25T14:34:52.743Z,2.60
2022-08-25T14:35:55.907Z,1.90
2022-08-25T14:37:00.195Z,2.00
2022-08-25T14:38:09.217Z,1.90
2022-08-25T14:39:12.605Z,2.50
2022-08-25T14:40:20.083Z,1.90
2022-08-25T14:41:24.191Z,2.28
2022-08-25T14:42:27.568Z,2.28
2022-08-25T14:43:31.608Z,1.92
2022-08-25T14:44:34.955Z,2.00
2022-08-25T14:45:41.738Z,1.65
2022-08-25T14:46:53.207Z,2.33
2022-08-25T14:48:05.478Z,1.95
2022-08-25T14:49:18.315Z,1.85
2022-08-25T14:50:27.493Z,2.45
2022-08-25T14:51:32.603Z,2.22
2022-08-25T14:52:35.490Z,2.03
2022-08-25T14:53:38.303Z,1.83
2022-08-25T14:54:42.389Z,1.88
2022-08-25T14:55:45.463Z,1.85
2022-08-25T14:56:49.399Z,1.60
2022-08-25T14:57:52.079Z,1.90
2022-08-25T14:58:55.693Z,1.65
2022-08-25T14:59:58.562Z,2.22
2022-08-25T15:01:01.950Z,1.70
2022-08-25T15:02:08.510Z,2.17
2022-08-25T15:03:18.005Z,1.70
2022-08-25T15:04:23.490Z,1.98
2022-08-25T15:05:28.368Z,2.38
2022-08-25T15:06:31.207Z,2.05
2022-08-25T15:07:52.505Z,1.92
2022-08-25T15:09:13.852Z,1.95
2022-08-25T15:10:16.507Z,2.13
2022-08-25T15:11:20.625Z,2.00
2022-08-25T15:12:46.066Z,1.80
2022-08-25T15:13:49.657Z,1.80